LFMU 211130Z AUTO 33017KT CAVOK 09/M05 Q1027 NOSIG

ElémentsDécodage
LFMU Station météo située sur l'aérodrome de BEZIERS Vias
211130Z émis le 21 du mois à 11h30 UTC
AUTO Bulletin édité par un automate
33017KT vent du 330°, 17 noeuds
CAVOK Ceiling And Visibility OK
- Visibilité de 10 Km ou plus
- Pas de nuage au-dessous de 1500m ou au-dessous de l'altitude minimale du secteur la plus élevée (si>1500m) et absence de CB
- pas de temps présent significatif
09/M05 température 09°C, point de rosée -05°C
 soit une humidité relative de 37%
Q1027 la pression au niveau de la mer (QNH) est de 1027 hPa
NOSIG Pas de changement significatif prévu au cours des deux heures suivant l'heure de l'observation